Beaufort, North Carolina
Current Conditions -  °F | °C
As of 3:58 AM on Thursday 23 Oct 2014 (Local Time) from KMRH Reporting Station
Clear Clear  
Wind Chill: 54°   Ceiling: Unl
Heat Index: 54°   Visibility: 10mi
Dew Point: 47°   Wind: 16mph
Humidity: 77%   Direction: 310°NW
Pressure: 29.95"   Gusts: NA
Location:  34.72°N, 76.66°W
Report Text: KMRH 230758Z AUTO 31014KT 10SM CLR 12/08 A2995 RMK AO2 SLP143 T01220083 TSNO
Loading
Personal Weather Stations






























Interactive Weather Map
Tropical Storm Tracking
New forecast layout! Learn more

10-Day Weather Forecast

Advertisements
Track Severe Weather on mobile